Torhout, Belgium
Current Conditions -  °F | °C
As of 7:50 AM on Tuesday 21 Oct 2014 (Local Time) from EBOS Reporting Station
Light Rain Light Rain  
Wind Chill: 54°   Ceiling: 1300
Heat Index: 54°   Visibility: 2.8mi
Dew Point: 50°   Wind: 16mph
Humidity: 88%   Direction: 200°SSW
Pressure: 29.71"   Gusts: NA
Location:  51.07°N, 3.1°E
Report Text: EBOS 210550Z 20014KT 4500 -DZRA SCT007 BKN013 12/10 Q1006 TEMPO 21020G30KT 2500 RA BKN007
Loading
Personal Weather Stations






























Interactive Weather Map
Tropical Storm Tracking
New forecast layout! Learn more

10-Day Weather Forecast

Advertisements
Track Severe Weather on mobile